sensor_id;sensor_type;location;lat;lon;timestamp;P1;durP1;ratioP1;P2;durP2;ratioP2
7829;SDS011;3960;51.86894000;5.39848000;2022-09-23T00:01:05;20.03;;;11.87;;
7829;SDS011;3960;51.86894000;5.39848000;2022-09-23T00:03:31;14.82;;;12.10;;
7829;SDS011;3960;51.86894000;5.39848000;2022-09-23T00:05:58;15.38;;;12.10;;
7829;SDS011;3960;51.86894000;5.39848000;2022-09-23T00:08:23;17.10;;;12.07;;
7829;SDS011;3960;51.86894000;5.39848000;2022-09-23T00:10:48;16.25;;;12.23;;
7829;SDS011;3960;51.86894000;5.39848000;2022-09-23T00:13:14;17.33;;;11.68;;
7829;SDS011;3960;51.86894000;5.39848000;2022-09-23T00:15:40;17.80;;;12.73;;
7829;SDS011;3960;51.86894000;5.39848000;2022-09-23T00:18:05;19.00;;;12.33;;
7829;SDS011;3960;51.86894000;5.39848000;2022-09-23T00:20:33;18.15;;;12.50;;
7829;SDS011;3960;51.86894000;5.39848000;2022-09-23T00:22:58;16.27;;;11.77;;
7829;SDS011;3960;51.86894000;5.39848000;2022-09-23T00:25:23;14.07;;;11.83;;
7829;SDS011;3960;51.86894000;5.39848000;2022-09-23T00:27:49;17.50;;;12.05;;
7829;SDS011;3960;51.86894000;5.39848000;2022-09-23T00:30:14;18.57;;;11.97;;
7829;SDS011;3960;51.86894000;5.39848000;2022-09-23T00:32:39;14.60;;;11.65;;
7829;SDS011;3960;51.86894000;5.39848000;2022-09-23T00:35:04;13.90;;;11.77;;
7829;SDS011;3960;51.86894000;5.39848000;2022-09-23T00:37:30;15.65;;;11.48;;
7829;SDS011;3960;51.86894000;5.39848000;2022-09-23T00:39:55;14.90;;;11.93;;
7829;SDS011;3960;51.86894000;5.39848000;2022-09-23T00:42:22;15.73;;;11.90;;
7829;SDS011;3960;51.86894000;5.39848000;2022-09-23T00:44:48;15.45;;;10.70;;
7829;SDS011;3960;51.86894000;5.39848000;2022-09-23T00:49:43;15.18;;;11.90;;
7829;SDS011;3960;51.86894000;5.39848000;2022-09-23T00:52:10;16.25;;;11.93;;
7829;SDS011;3960;51.86894000;5.39848000;2022-09-23T00:54:36;16.77;;;11.40;;
7829;SDS011;3960;51.86894000;5.39848000;2022-09-23T00:57:01;12.40;;;11.10;;
7829;SDS011;3960;51.86894000;5.39848000;2022-09-23T00:59:27;13.85;;;11.55;;
7829;SDS011;3960;51.86894000;5.39848000;2022-09-23T01:01:53;14.50;;;11.57;;
7829;SDS011;3960;51.86894000;5.39848000;2022-09-23T01:04:21;16.33;;;12.80;;
7829;SDS011;3960;51.86894000;5.39848000;2022-09-23T01:06:47;16.92;;;12.05;;
7829;SDS011;3960;51.86894000;5.39848000;2022-09-23T01:09:12;15.40;;;12.52;;
7829;SDS011;3960;51.86894000;5.39848000;2022-09-23T01:11:46;13.97;;;12.20;;
7829;SDS011;3960;51.86894000;5.39848000;2022-09-23T01:16:59;17.90;;;12.93;;
7829;SDS011;3960;51.86894000;5.39848000;2022-09-23T01:21:58;16.10;;;13.00;;
7829;SDS011;3960;51.86894000;5.39848000;2022-09-23T01:32:25;15.27;;;12.70;;
7829;SDS011;3960;51.86894000;5.39848000;2022-09-23T01:37:44;18.55;;;12.82;;
7829;SDS011;3960;51.86894000;5.39848000;2022-09-23T01:40:16;16.13;;;13.15;;
7829;SDS011;3960;51.86894000;5.39848000;2022-09-23T01:43:03;17.35;;;12.30;;
7829;SDS011;3960;51.86894000;5.39848000;2022-09-23T01:45:32;15.90;;;13.30;;
7829;SDS011;3960;51.86894000;5.39848000;2022-09-23T01:50:34;15.48;;;13.13;;
7829;SDS011;3960;51.86894000;5.39848000;2022-09-23T01:55:54;20.88;;;13.45;;
7829;SDS011;3960;51.86894000;5.39848000;2022-09-23T01:58:25;17.98;;;13.85;;
7829;SDS011;3960;51.86894000;5.39848000;2022-09-23T02:00:56;14.75;;;12.95;;
7829;SDS011;3960;51.86894000;5.39848000;2022-09-23T02:03:25;20.38;;;14.07;;
7829;SDS011;3960;51.86894000;5.39848000;2022-09-23T02:05:57;19.45;;;13.63;;
7829;SDS011;3960;51.86894000;5.39848000;2022-09-23T02:08:33;17.73;;;13.77;;
7829;SDS011;3960;51.86894000;5.39848000;2022-09-23T02:11:02;15.40;;;13.00;;
7829;SDS011;3960;51.86894000;5.39848000;2022-09-23T02:13:32;15.90;;;12.75;;
7829;SDS011;3960;51.86894000;5.39848000;2022-09-23T02:16:01;15.18;;;12.32;;
7829;SDS011;3960;51.86894000;5.39848000;2022-09-23T02:18:29;16.88;;;12.80;;
7829;SDS011;3960;51.86894000;5.39848000;2022-09-23T02:20:57;16.05;;;13.02;;
7829;SDS011;3960;51.86894000;5.39848000;2022-09-23T02:23:26;16.90;;;12.75;;
7829;SDS011;3960;51.86894000;5.39848000;2022-09-23T02:25:57;16.50;;;12.02;;
7829;SDS011;3960;51.86894000;5.39848000;2022-09-23T02:28:41;14.85;;;12.55;;
7829;SDS011;3960;51.86894000;5.39848000;2022-09-23T02:31:16;16.88;;;11.70;;
7829;SDS011;3960;51.86894000;5.39848000;2022-09-23T02:33:53;13.90;;;12.27;;
7829;SDS011;3960;51.86894000;5.39848000;2022-09-23T02:36:29;14.88;;;12.45;;
7829;SDS011;3960;51.86894000;5.39848000;2022-09-23T02:38:57;17.92;;;12.82;;
7829;SDS011;3960;51.86894000;5.39848000;2022-09-23T02:41:27;18.27;;;13.20;;
7829;SDS011;3960;51.86894000;5.39848000;2022-09-23T02:46:21;16.67;;;12.90;;
7829;SDS011;3960;51.86894000;5.39848000;2022-09-23T02:51:12;18.23;;;12.48;;
7829;SDS011;3960;51.86894000;5.39848000;2022-09-23T02:53:37;18.43;;;12.37;;
7829;SDS011;3960;51.86894000;5.39848000;2022-09-23T02:56:16;20.92;;;12.27;;
7829;SDS011;3960;51.86894000;5.39848000;2022-09-23T02:58:42;18.98;;;12.82;;
7829;SDS011;3960;51.86894000;5.39848000;2022-09-23T03:09:10;18.85;;;12.93;;
7829;SDS011;3960;51.86894000;5.39848000;2022-09-23T03:11:36;19.15;;;13.45;;
7829;SDS011;3960;51.86894000;5.39848000;2022-09-23T03:16:36;16.58;;;12.40;;
7829;SDS011;3960;51.86894000;5.39848000;2022-09-23T03:21:36;15.07;;;12.55;;
7829;SDS011;3960;51.86894000;5.39848000;2022-09-23T03:24:03;16.23;;;12.55;;
7829;SDS011;3960;51.86894000;5.39848000;2022-09-23T03:26:30;22.40;;;12.90;;
7829;SDS011;3960;51.86894000;5.39848000;2022-09-23T03:28:56;19.80;;;13.55;;
7829;SDS011;3960;51.86894000;5.39848000;2022-09-23T03:31:22;15.85;;;12.52;;
7829;SDS011;3960;51.86894000;5.39848000;2022-09-23T03:33:51;17.02;;;13.18;;
7829;SDS011;3960;51.86894000;5.39848000;2022-09-23T03:36:20;23.75;;;13.32;;
7829;SDS011;3960;51.86894000;5.39848000;2022-09-23T03:39:11;16.30;;;13.00;;
7829;SDS011;3960;51.86894000;5.39848000;2022-09-23T03:41:41;14.48;;;12.88;;
7829;SDS011;3960;51.86894000;5.39848000;2022-09-23T03:44:09;16.70;;;13.07;;
7829;SDS011;3960;51.86894000;5.39848000;2022-09-23T03:46:34;16.60;;;13.63;;
7829;SDS011;3960;51.86894000;5.39848000;2022-09-23T03:49:12;15.10;;;13.15;;
7829;SDS011;3960;51.86894000;5.39848000;2022-09-23T03:51:39;16.63;;;12.77;;
7829;SDS011;3960;51.86894000;5.39848000;2022-09-23T03:54:04;15.77;;;13.30;;
7829;SDS011;3960;51.86894000;5.39848000;2022-09-23T03:56:29;18.00;;;13.35;;
7829;SDS011;3960;51.86894000;5.39848000;2022-09-23T03:58:54;14.87;;;13.23;;
7829;SDS011;3960;51.86894000;5.39848000;2022-09-23T04:01:20;16.58;;;14.32;;
7829;SDS011;3960;51.86894000;5.39848000;2022-09-23T04:03:45;17.50;;;13.88;;
7829;SDS011;3960;51.86894000;5.39848000;2022-09-23T04:06:10;20.42;;;13.50;;
7829;SDS011;3960;51.86894000;5.39848000;2022-09-23T04:08:35;17.70;;;13.68;;
7829;SDS011;3960;51.86894000;5.39848000;2022-09-23T04:11:01;17.27;;;13.38;;
7829;SDS011;3960;51.86894000;5.39848000;2022-09-23T04:13:27;15.40;;;13.57;;
7829;SDS011;3960;51.86894000;5.39848000;2022-09-23T04:15:52;17.60;;;13.80;;
7829;SDS011;3960;51.86894000;5.39848000;2022-09-23T04:18:18;16.55;;;13.20;;
7829;SDS011;3960;51.86894000;5.39848000;2022-09-23T04:20:43;20.07;;;13.70;;
7829;SDS011;3960;51.86894000;5.39848000;2022-09-23T04:23:08;17.77;;;14.27;;
7829;SDS011;3960;51.86894000;5.39848000;2022-09-23T04:25:33;16.17;;;13.33;;
7829;SDS011;3960;51.86894000;5.39848000;2022-09-23T04:27:58;18.20;;;12.88;;
7829;SDS011;3960;51.86894000;5.39848000;2022-09-23T04:30:23;15.68;;;13.43;;
7829;SDS011;3960;51.86894000;5.39848000;2022-09-23T04:32:50;17.67;;;13.07;;
7829;SDS011;3960;51.86894000;5.39848000;2022-09-23T04:35:15;19.13;;;14.88;;
7829;SDS011;3960;51.86894000;5.39848000;2022-09-23T04:37:41;16.33;;;12.63;;
7829;SDS011;3960;51.86894000;5.39848000;2022-09-23T04:40:06;20.85;;;12.90;;
7829;SDS011;3960;51.86894000;5.39848000;2022-09-23T04:42:32;16.15;;;13.50;;
7829;SDS011;3960;51.86894000;5.39848000;2022-09-23T04:44:57;20.20;;;12.83;;
7829;SDS011;3960;51.86894000;5.39848000;2022-09-23T04:47:22;18.63;;;12.85;;
7829;SDS011;3960;51.86894000;5.39848000;2022-09-23T04:49:47;19.00;;;13.15;;
7829;SDS011;3960;51.86894000;5.39848000;2022-09-23T04:52:13;20.35;;;13.50;;
7829;SDS011;3960;51.86894000;5.39848000;2022-09-23T04:54:39;18.27;;;12.37;;
7829;SDS011;3960;51.86894000;5.39848000;2022-09-23T04:57:04;15.85;;;12.75;;
7829;SDS011;3960;51.86894000;5.39848000;2022-09-23T04:59:29;16.08;;;12.52;;
7829;SDS011;3960;51.86894000;5.39848000;2022-09-23T05:01:55;16.33;;;12.73;;
7829;SDS011;3960;51.86894000;5.39848000;2022-09-23T05:04:20;17.73;;;12.43;;
7829;SDS011;3960;51.86894000;5.39848000;2022-09-23T05:06:45;15.57;;;12.37;;
7829;SDS011;3960;51.86894000;5.39848000;2022-09-23T05:09:13;15.20;;;12.20;;
7829;SDS011;3960;51.86894000;5.39848000;2022-09-23T05:11:38;17.00;;;11.80;;
7829;SDS011;3960;51.86894000;5.39848000;2022-09-23T05:14:04;18.80;;;13.00;;
7829;SDS011;3960;51.86894000;5.39848000;2022-09-23T05:16:29;18.80;;;13.10;;
7829;SDS011;3960;51.86894000;5.39848000;2022-09-23T05:18:54;20.57;;;12.90;;
7829;SDS011;3960;51.86894000;5.39848000;2022-09-23T05:21:21;14.10;;;12.48;;
7829;SDS011;3960;51.86894000;5.39848000;2022-09-23T05:23:50;18.55;;;12.82;;
7829;SDS011;3960;51.86894000;5.39848000;2022-09-23T05:26:30;19.45;;;13.98;;
7829;SDS011;3960;51.86894000;5.39848000;2022-09-23T05:28:57;17.77;;;12.68;;
7829;SDS011;3960;51.86894000;5.39848000;2022-09-23T05:31:23;18.00;;;12.60;;
7829;SDS011;3960;51.86894000;5.39848000;2022-09-23T05:33:56;17.35;;;13.27;;
7829;SDS011;3960;51.86894000;5.39848000;2022-09-23T05:36:21;14.90;;;13.15;;
7829;SDS011;3960;51.86894000;5.39848000;2022-09-23T05:38:47;22.08;;;13.13;;
7829;SDS011;3960;51.86894000;5.39848000;2022-09-23T05:41:13;16.90;;;12.80;;
7829;SDS011;3960;51.86894000;5.39848000;2022-09-23T05:43:40;17.70;;;12.25;;
7829;SDS011;3960;51.86894000;5.39848000;2022-09-23T05:46:15;14.10;;;11.48;;
7829;SDS011;3960;51.86894000;5.39848000;2022-09-23T05:48:42;22.05;;;12.88;;
7829;SDS011;3960;51.86894000;5.39848000;2022-09-23T05:51:11;17.73;;;12.27;;
7829;SDS011;3960;51.86894000;5.39848000;2022-09-23T05:53:37;19.02;;;12.73;;
7829;SDS011;3960;51.86894000;5.39848000;2022-09-23T05:56:03;17.75;;;12.82;;
7829;SDS011;3960;51.86894000;5.39848000;2022-09-23T05:58:28;15.77;;;12.18;;
7829;SDS011;3960;51.86894000;5.39848000;2022-09-23T06:00:54;17.80;;;12.25;;
7829;SDS011;3960;51.86894000;5.39848000;2022-09-23T06:03:23;16.90;;;11.60;;
7829;SDS011;3960;51.86894000;5.39848000;2022-09-23T06:05:52;15.50;;;12.25;;
7829;SDS011;3960;51.86894000;5.39848000;2022-09-23T06:08:17;13.85;;;11.02;;
7829;SDS011;3960;51.86894000;5.39848000;2022-09-23T06:10:43;17.02;;;11.25;;
7829;SDS011;3960;51.86894000;5.39848000;2022-09-23T06:13:09;16.38;;;11.68;;
7829;SDS011;3960;51.86894000;5.39848000;2022-09-23T06:15:35;20.23;;;12.23;;
7829;SDS011;3960;51.86894000;5.39848000;2022-09-23T06:18:00;13.48;;;11.13;;
7829;SDS011;3960;51.86894000;5.39848000;2022-09-23T06:20:26;18.55;;;11.75;;
7829;SDS011;3960;51.86894000;5.39848000;2022-09-23T06:22:51;18.23;;;12.03;;
7829;SDS011;3960;51.86894000;5.39848000;2022-09-23T06:25:16;19.20;;;11.50;;
7829;SDS011;3960;51.86894000;5.39848000;2022-09-23T06:27:43;19.63;;;11.82;;
7829;SDS011;3960;51.86894000;5.39848000;2022-09-23T06:30:09;17.15;;;12.20;;
7829;SDS011;3960;51.86894000;5.39848000;2022-09-23T06:32:35;20.42;;;11.57;;
7829;SDS011;3960;51.86894000;5.39848000;2022-09-23T06:35:00;15.13;;;12.20;;
7829;SDS011;3960;51.86894000;5.39848000;2022-09-23T06:37:25;19.10;;;12.53;;
7829;SDS011;3960;51.86894000;5.39848000;2022-09-23T06:39:50;16.27;;;12.20;;
7829;SDS011;3960;51.86894000;5.39848000;2022-09-23T06:42:18;17.15;;;12.55;;
7829;SDS011;3960;51.86894000;5.39848000;2022-09-23T06:44:44;14.38;;;11.05;;
7829;SDS011;3960;51.86894000;5.39848000;2022-09-23T06:47:10;15.10;;;11.77;;
7829;SDS011;3960;51.86894000;5.39848000;2022-09-23T06:49:35;20.23;;;11.67;;
7829;SDS011;3960;51.86894000;5.39848000;2022-09-23T06:52:00;13.73;;;11.38;;
7829;SDS011;3960;51.86894000;5.39848000;2022-09-23T06:54:26;15.73;;;11.13;;
7829;SDS011;3960;51.86894000;5.39848000;2022-09-23T06:56:53;16.45;;;11.07;;
7829;SDS011;3960;51.86894000;5.39848000;2022-09-23T06:59:18;16.55;;;11.10;;
7829;SDS011;3960;51.86894000;5.39848000;2022-09-23T07:01:43;14.15;;;11.20;;
7829;SDS011;3960;51.86894000;5.39848000;2022-09-23T07:04:11;14.40;;;11.15;;
7829;SDS011;3960;51.86894000;5.39848000;2022-09-23T07:06:36;15.57;;;11.47;;
7829;SDS011;3960;51.86894000;5.39848000;2022-09-23T07:09:02;15.03;;;10.80;;
7829;SDS011;3960;51.86894000;5.39848000;2022-09-23T07:11:27;18.83;;;11.38;;
7829;SDS011;3960;51.86894000;5.39848000;2022-09-23T07:13:52;15.45;;;11.05;;
7829;SDS011;3960;51.86894000;5.39848000;2022-09-23T07:16:17;17.58;;;12.00;;
7829;SDS011;3960;51.86894000;5.39848000;2022-09-23T07:18:43;19.10;;;11.15;;
7829;SDS011;3960;51.86894000;5.39848000;2022-09-23T07:21:10;14.60;;;11.57;;
7829;SDS011;3960;51.86894000;5.39848000;2022-09-23T07:23:39;15.00;;;11.05;;
7829;SDS011;3960;51.86894000;5.39848000;2022-09-23T07:26:04;12.55;;;10.13;;
7829;SDS011;3960;51.86894000;5.39848000;2022-09-23T07:28:31;14.93;;;10.27;;
7829;SDS011;3960;51.86894000;5.39848000;2022-09-23T07:31:00;16.83;;;10.63;;
7829;SDS011;3960;51.86894000;5.39848000;2022-09-23T07:33:25;12.80;;;10.02;;
7829;SDS011;3960;51.86894000;5.39848000;2022-09-23T07:35:53;15.95;;;9.57;;
7829;SDS011;3960;51.86894000;5.39848000;2022-09-23T07:38:18;12.10;;;10.27;;
7829;SDS011;3960;51.86894000;5.39848000;2022-09-23T07:40:43;13.40;;;9.80;;
7829;SDS011;3960;51.86894000;5.39848000;2022-09-23T07:43:08;13.53;;;10.07;;
7829;SDS011;3960;51.86894000;5.39848000;2022-09-23T07:45:34;11.52;;;9.05;;
7829;SDS011;3960;51.86894000;5.39848000;2022-09-23T07:47:59;17.98;;;9.55;;
7829;SDS011;3960;51.86894000;5.39848000;2022-09-23T07:50:25;18.13;;;10.73;;
7829;SDS011;3960;51.86894000;5.39848000;2022-09-23T07:52:50;12.53;;;9.47;;
7829;SDS011;3960;51.86894000;5.39848000;2022-09-23T07:55:16;15.48;;;9.43;;
7829;SDS011;3960;51.86894000;5.39848000;2022-09-23T07:57:42;10.85;;;9.00;;
7829;SDS011;3960;51.86894000;5.39848000;2022-09-23T08:00:07;15.48;;;9.73;;
7829;SDS011;3960;51.86894000;5.39848000;2022-09-23T08:02:33;12.95;;;9.45;;
7829;SDS011;3960;51.86894000;5.39848000;2022-09-23T08:04:58;13.25;;;9.35;;
7829;SDS011;3960;51.86894000;5.39848000;2022-09-23T08:07:23;16.02;;;10.68;;
7829;SDS011;3960;51.86894000;5.39848000;2022-09-23T08:09:49;12.07;;;9.30;;
7829;SDS011;3960;51.86894000;5.39848000;2022-09-23T08:12:16;13.88;;;9.77;;
7829;SDS011;3960;51.86894000;5.39848000;2022-09-23T08:14:41;12.68;;;8.77;;
7829;SDS011;3960;51.86894000;5.39848000;2022-09-23T08:17:06;9.75;;;8.75;;
7829;SDS011;3960;51.86894000;5.39848000;2022-09-23T08:19:32;10.48;;;8.85;;
7829;SDS011;3960;51.86894000;5.39848000;2022-09-23T08:21:57;15.48;;;9.20;;
7829;SDS011;3960;51.86894000;5.39848000;2022-09-23T08:24:23;12.88;;;8.90;;
7829;SDS011;3960;51.86894000;5.39848000;2022-09-23T08:26:48;11.85;;;8.60;;
7829;SDS011;3960;51.86894000;5.39848000;2022-09-23T08:29:17;13.25;;;9.40;;
7829;SDS011;3960;51.86894000;5.39848000;2022-09-23T08:31:43;11.90;;;9.27;;
7829;SDS011;3960;51.86894000;5.39848000;2022-09-23T08:34:08;10.88;;;8.52;;
7829;SDS011;3960;51.86894000;5.39848000;2022-09-23T08:36:34;12.82;;;9.32;;
7829;SDS011;3960;51.86894000;5.39848000;2022-09-23T08:38:59;12.57;;;9.48;;
7829;SDS011;3960;51.86894000;5.39848000;2022-09-23T08:41:38;13.80;;;9.23;;
7829;SDS011;3960;51.86894000;5.39848000;2022-09-23T08:44:10;13.20;;;8.10;;
7829;SDS011;3960;51.86894000;5.39848000;2022-09-23T08:49:03;11.50;;;7.97;;
7829;SDS011;3960;51.86894000;5.39848000;2022-09-23T08:51:38;14.63;;;9.20;;
7829;SDS011;3960;51.86894000;5.39848000;2022-09-23T08:54:04;12.80;;;7.75;;
7829;SDS011;3960;51.86894000;5.39848000;2022-09-23T08:56:32;12.27;;;8.00;;
7829;SDS011;3960;51.86894000;5.39848000;2022-09-23T08:59:06;9.43;;;7.60;;
7829;SDS011;3960;51.86894000;5.39848000;2022-09-23T09:03:59;13.57;;;7.90;;
7829;SDS011;3960;51.86894000;5.39848000;2022-09-23T09:06:38;11.40;;;7.68;;
7829;SDS011;3960;51.86894000;5.39848000;2022-09-23T09:09:05;9.15;;;7.15;;
7829;SDS011;3960;51.86894000;5.39848000;2022-09-23T09:11:39;10.68;;;7.75;;
7829;SDS011;3960;51.86894000;5.39848000;2022-09-23T09:14:30;13.50;;;8.45;;
7829;SDS011;3960;51.86894000;5.39848000;2022-09-23T09:17:09;13.65;;;7.00;;
7829;SDS011;3960;51.86894000;5.39848000;2022-09-23T09:19:54;11.40;;;7.80;;
7829;SDS011;3960;51.86894000;5.39848000;2022-09-23T09:22:21;11.18;;;7.60;;
7829;SDS011;3960;51.86894000;5.39848000;2022-09-23T09:24:52;9.48;;;7.47;;
7829;SDS011;3960;51.86894000;5.39848000;2022-09-23T09:27:19;15.27;;;7.72;;
7829;SDS011;3960;51.86894000;5.39848000;2022-09-23T09:29:45;9.55;;;7.45;;
7829;SDS011;3960;51.86894000;5.39848000;2022-09-23T09:32:23;13.32;;;7.88;;
7829;SDS011;3960;51.86894000;5.39848000;2022-09-23T09:34:53;9.13;;;7.32;;
7829;SDS011;3960;51.86894000;5.39848000;2022-09-23T09:37:32;13.90;;;8.05;;
7829;SDS011;3960;51.86894000;5.39848000;2022-09-23T09:39:59;13.95;;;8.30;;
7829;SDS011;3960;51.86894000;5.39848000;2022-09-23T09:42:26;12.13;;;7.57;;
7829;SDS011;3960;51.86894000;5.39848000;2022-09-23T09:44:58;11.13;;;7.43;;
7829;SDS011;3960;51.86894000;5.39848000;2022-09-23T09:50:08;10.43;;;6.90;;
7829;SDS011;3960;51.86894000;5.39848000;2022-09-23T09:52:34;10.00;;;7.20;;
7829;SDS011;3960;51.86894000;5.39848000;2022-09-23T09:57:50;12.25;;;7.53;;
7829;SDS011;3960;51.86894000;5.39848000;2022-09-23T10:02:42;14.18;;;6.47;;
7829;SDS011;3960;51.86894000;5.39848000;2022-09-23T10:05:21;12.43;;;6.60;;
7829;SDS011;3960;51.86894000;5.39848000;2022-09-23T10:07:47;11.50;;;6.50;;
7829;SDS011;3960;51.86894000;5.39848000;2022-09-23T10:10:16;7.80;;;6.20;;
7829;SDS011;3960;51.86894000;5.39848000;2022-09-23T10:12:42;11.63;;;6.13;;
7829;SDS011;3960;51.86894000;5.39848000;2022-09-23T10:15:24;8.85;;;6.50;;
7829;SDS011;3960;51.86894000;5.39848000;2022-09-23T10:17:50;11.30;;;5.97;;
7829;SDS011;3960;51.86894000;5.39848000;2022-09-23T10:20:15;10.18;;;6.03;;
7829;SDS011;3960;51.86894000;5.39848000;2022-09-23T10:22:41;8.02;;;5.60;;
7829;SDS011;3960;51.86894000;5.39848000;2022-09-23T10:25:07;6.57;;;5.10;;
7829;SDS011;3960;51.86894000;5.39848000;2022-09-23T10:27:34;7.25;;;5.28;;
7829;SDS011;3960;51.86894000;5.39848000;2022-09-23T10:30:04;7.75;;;5.55;;
7829;SDS011;3960;51.86894000;5.39848000;2022-09-23T10:32:36;11.43;;;5.20;;
7829;SDS011;3960;51.86894000;5.39848000;2022-09-23T10:40:17;11.27;;;4.82;;
7829;SDS011;3960;51.86894000;5.39848000;2022-09-23T10:43:10;7.50;;;4.30;;
7829;SDS011;3960;51.86894000;5.39848000;2022-09-23T10:45:58;7.05;;;4.70;;
7829;SDS011;3960;51.86894000;5.39848000;2022-09-23T10:51:18;7.03;;;4.63;;
7829;SDS011;3960;51.86894000;5.39848000;2022-09-23T10:56:24;7.22;;;4.72;;
7829;SDS011;3960;51.86894000;5.39848000;2022-09-23T11:01:29;6.78;;;4.97;;
7829;SDS011;3960;51.86894000;5.39848000;2022-09-23T11:06:46;6.90;;;4.00;;
7829;SDS011;3960;51.86894000;5.39848000;2022-09-23T11:11:55;7.28;;;4.05;;
7829;SDS011;3960;51.86894000;5.39848000;2022-09-23T11:17:13;5.72;;;3.60;;
7829;SDS011;3960;51.86894000;5.39848000;2022-09-23T11:30:08;5.45;;;3.50;;
7829;SDS011;3960;51.86894000;5.39848000;2022-09-23T11:38:00;4.93;;;2.70;;
7829;SDS011;3960;51.86894000;5.39848000;2022-09-23T11:42:55;6.17;;;2.90;;
7829;SDS011;3960;51.86894000;5.39848000;2022-09-23T11:45:26;3.58;;;2.40;;
7829;SDS011;3960;51.86894000;5.39848000;2022-09-23T11:47:59;7.35;;;2.92;;
7829;SDS011;3960;51.86894000;5.39848000;2022-09-23T11:50:36;5.72;;;2.95;;
7829;SDS011;3960;51.86894000;5.39848000;2022-09-23T11:53:11;4.65;;;2.63;;
7829;SDS011;3960;51.86894000;5.39848000;2022-09-23T11:55:51;5.15;;;2.90;;
7829;SDS011;3960;51.86894000;5.39848000;2022-09-23T11:58:18;5.28;;;2.65;;
7829;SDS011;3960;51.86894000;5.39848000;2022-09-23T12:00:48;5.60;;;2.90;;
7829;SDS011;3960;51.86894000;5.39848000;2022-09-23T12:03:23;4.28;;;3.00;;
7829;SDS011;3960;51.86894000;5.39848000;2022-09-23T12:05:51;4.65;;;3.15;;
7829;SDS011;3960;51.86894000;5.39848000;2022-09-23T12:08:29;6.40;;;3.25;;
7829;SDS011;3960;51.86894000;5.39848000;2022-09-23T12:13:43;4.55;;;2.97;;
7829;SDS011;3960;51.86894000;5.39848000;2022-09-23T12:16:20;8.55;;;3.03;;
7829;SDS011;3960;51.86894000;5.39848000;2022-09-23T12:18:56;6.60;;;3.22;;
7829;SDS011;3960;51.86894000;5.39848000;2022-09-23T12:21:34;3.95;;;2.78;;
7829;SDS011;3960;51.86894000;5.39848000;2022-09-23T12:26:47;6.82;;;3.03;;
7829;SDS011;3960;51.86894000;5.39848000;2022-09-23T12:29:13;5.43;;;2.60;;
7829;SDS011;3960;51.86894000;5.39848000;2022-09-23T12:31:39;9.52;;;3.28;;
7829;SDS011;3960;51.86894000;5.39848000;2022-09-23T12:34:27;5.13;;;3.28;;
7829;SDS011;3960;51.86894000;5.39848000;2022-09-23T12:36:50;7.05;;;3.47;;
7829;SDS011;3960;51.86894000;5.39848000;2022-09-23T12:39:16;8.93;;;3.30;;
7829;SDS011;3960;51.86894000;5.39848000;2022-09-23T12:41:45;4.97;;;2.83;;
7829;SDS011;3960;51.86894000;5.39848000;2022-09-23T12:46:47;5.75;;;3.15;;
7829;SDS011;3960;51.86894000;5.39848000;2022-09-23T12:49:23;4.78;;;2.75;;
7829;SDS011;3960;51.86894000;5.39848000;2022-09-23T12:52:25;8.02;;;2.90;;
7829;SDS011;3960;51.86894000;5.39848000;2022-09-23T12:54:46;7.07;;;3.10;;
7829;SDS011;3960;51.86894000;5.39848000;2022-09-23T12:57:12;5.03;;;2.60;;
7829;SDS011;3960;51.86894000;5.39848000;2022-09-23T13:02:29;4.30;;;2.70;;
7829;SDS011;3960;51.86894000;5.39848000;2022-09-23T13:05:03;6.85;;;2.70;;
7829;SDS011;3960;51.86894000;5.39848000;2022-09-23T13:07:59;6.25;;;2.88;;
7829;SDS011;3960;51.86894000;5.39848000;2022-09-23T13:10:28;3.60;;;2.70;;
7829;SDS011;3960;51.86894000;5.39848000;2022-09-23T13:12:54;4.82;;;2.90;;
7829;SDS011;3960;51.86894000;5.39848000;2022-09-23T13:15:38;6.07;;;3.08;;
7829;SDS011;3960;51.86894000;5.39848000;2022-09-23T13:20:47;6.68;;;2.75;;
7829;SDS011;3960;51.86894000;5.39848000;2022-09-23T13:25:38;13.43;;;2.95;;
7829;SDS011;3960;51.86894000;5.39848000;2022-09-23T13:28:12;4.90;;;2.80;;
7829;SDS011;3960;51.86894000;5.39848000;2022-09-23T13:30:48;7.00;;;2.75;;
7829;SDS011;3960;51.86894000;5.39848000;2022-09-23T13:33:18;8.52;;;2.63;;
7829;SDS011;3960;51.86894000;5.39848000;2022-09-23T13:35:47;7.78;;;2.60;;
7829;SDS011;3960;51.86894000;5.39848000;2022-09-23T13:38:19;5.55;;;2.83;;
7829;SDS011;3960;51.86894000;5.39848000;2022-09-23T13:40:49;5.38;;;2.90;;
7829;SDS011;3960;51.86894000;5.39848000;2022-09-23T13:43:26;5.35;;;3.13;;
7829;SDS011;3960;51.86894000;5.39848000;2022-09-23T13:45:55;9.93;;;3.38;;
7829;SDS011;3960;51.86894000;5.39848000;2022-09-23T13:48:21;5.53;;;3.15;;
7829;SDS011;3960;51.86894000;5.39848000;2022-09-23T13:50:48;8.20;;;3.33;;
7829;SDS011;3960;51.86894000;5.39848000;2022-09-23T13:53:32;6.40;;;3.25;;
7829;SDS011;3960;51.86894000;5.39848000;2022-09-23T13:56:10;5.68;;;3.03;;
7829;SDS011;3960;51.86894000;5.39848000;2022-09-23T13:58:36;7.80;;;3.10;;
7829;SDS011;3960;51.86894000;5.39848000;2022-09-23T14:01:02;6.97;;;2.97;;
7829;SDS011;3960;51.86894000;5.39848000;2022-09-23T14:03:29;7.90;;;2.97;;
7829;SDS011;3960;51.86894000;5.39848000;2022-09-23T14:05:59;9.23;;;3.60;;
7829;SDS011;3960;51.86894000;5.39848000;2022-09-23T14:08:25;5.30;;;3.00;;
7829;SDS011;3960;51.86894000;5.39848000;2022-09-23T14:10:50;11.70;;;3.40;;
7829;SDS011;3960;51.86894000;5.39848000;2022-09-23T14:13:19;6.93;;;3.20;;
7829;SDS011;3960;51.86894000;5.39848000;2022-09-23T14:15:45;4.47;;;2.90;;
7829;SDS011;3960;51.86894000;5.39848000;2022-09-23T14:18:13;7.18;;;3.72;;
7829;SDS011;3960;51.86894000;5.39848000;2022-09-23T14:20:45;12.25;;;4.10;;
7829;SDS011;3960;51.86894000;5.39848000;2022-09-23T14:23:11;6.13;;;3.88;;
7829;SDS011;3960;51.86894000;5.39848000;2022-09-23T14:25:40;6.53;;;4.00;;
7829;SDS011;3960;51.86894000;5.39848000;2022-09-23T14:28:08;6.32;;;4.03;;
7829;SDS011;3960;51.86894000;5.39848000;2022-09-23T14:30:34;6.43;;;4.13;;
7829;SDS011;3960;51.86894000;5.39848000;2022-09-23T14:33:05;8.48;;;3.88;;
7829;SDS011;3960;51.86894000;5.39848000;2022-09-23T14:35:41;7.15;;;4.28;;
7829;SDS011;3960;51.86894000;5.39848000;2022-09-23T14:38:08;6.47;;;4.22;;
7829;SDS011;3960;51.86894000;5.39848000;2022-09-23T14:40:52;6.68;;;3.85;;
7829;SDS011;3960;51.86894000;5.39848000;2022-09-23T14:43:39;6.25;;;3.92;;
7829;SDS011;3960;51.86894000;5.39848000;2022-09-23T14:46:04;5.80;;;3.95;;
7829;SDS011;3960;51.86894000;5.39848000;2022-09-23T14:48:30;8.45;;;4.50;;
7829;SDS011;3960;51.86894000;5.39848000;2022-09-23T14:50:57;8.52;;;4.40;;
7829;SDS011;3960;51.86894000;5.39848000;2022-09-23T14:53:30;6.55;;;4.13;;
7829;SDS011;3960;51.86894000;5.39848000;2022-09-23T14:58:39;8.75;;;4.28;;